createdAt,value
2023-01-01T00:00:44.752Z,100572.16
2023-01-01T00:05:46.239Z,100560.81
2023-01-01T00:10:47.820Z,100570.44
2023-01-01T00:15:49.240Z,100574.78
2023-01-01T00:20:50.749Z,100562.69
2023-01-01T00:25:52.184Z,100563.50
2023-01-01T00:30:57.468Z,100573.84
2023-01-01T00:36:06.670Z,100597.38
2023-01-01T00:41:08.393Z,100598.19
2023-01-01T00:46:12.149Z,100579.19
2023-01-01T00:51:13.763Z,100592.25
2023-01-01T00:56:15.308Z,100586.97
2023-01-01T01:01:18.501Z,100595.69
2023-01-01T01:06:22.236Z,100587.88
2023-01-01T01:11:26.503Z,100605.22
2023-01-01T01:16:33.303Z,100629.56
2023-01-01T01:21:38.193Z,100629.50
2023-01-01T01:26:41.379Z,100626.09
2023-01-01T01:31:43.957Z,100627.78
2023-01-01T01:36:47.464Z,100639.06
2023-01-01T01:41:51.382Z,100622.66
2023-01-01T01:46:54.010Z,100652.13
2023-01-01T01:51:56.570Z,100641.75
2023-01-01T01:57:03.930Z,100666.84
2023-01-01T02:02:27.533Z,100672.03
2023-01-01T02:07:31.444Z,100676.38
2023-01-01T02:12:36.910Z,100663.38
2023-01-01T02:18:00.495Z,100675.50
2023-01-01T02:23:39.748Z,100686.78
2023-01-01T02:29:03.155Z,100677.25
2023-01-01T02:34:09.438Z,100677.25
2023-01-01T02:39:14.835Z,100679.84
2023-01-01T02:44:18.763Z,100677.22
2023-01-01T02:49:20.456Z,100684.16
2023-01-01T02:54:39.049Z,100691.09
2023-01-01T03:00:19.435Z,100685.91
2023-01-01T03:05:32.988Z,100698.91
2023-01-01T03:11:02.239Z,100691.97
2023-01-01T03:16:19.886Z,100699.75
2023-01-01T03:21:23.018Z,100698.03
2023-01-01T03:26:27.647Z,100711.88
2023-01-01T03:31:29.942Z,100709.28
2023-01-01T03:36:37.127Z,100711.03
2023-01-01T03:41:52.757Z,100712.75
2023-01-01T03:46:56.377Z,100715.38
2023-01-01T03:52:37.330Z,100705.81
2023-01-01T03:58:05.208Z,100736.09
2023-01-01T04:03:30.253Z,100736.09
2023-01-01T04:08:36.032Z,100726.59
2023-01-01T04:13:48.133Z,100730.94
2023-01-01T04:18:53.064Z,100736.16
2023-01-01T04:23:54.749Z,100739.59
2023-01-01T04:28:58.655Z,100742.19
2023-01-01T04:34:03.213Z,100768.16
2023-01-01T04:39:05.670Z,100760.34
2023-01-01T04:44:07.537Z,100773.38
2023-01-01T04:49:11.698Z,100793.22
2023-01-01T04:54:16.542Z,100807.91
2023-01-01T04:59:18.054Z,100815.81
2023-01-01T05:04:22.260Z,100829.66
2023-01-01T05:09:24.987Z,100831.38
2023-01-01T05:14:27.563Z,100820.84
2023-01-01T05:19:30.822Z,100829.56
2023-01-01T05:24:36.832Z,100821.75
2023-01-01T05:29:39.327Z,100845.97
2023-01-01T05:34:42.597Z,100876.22
2023-01-01T05:39:44.515Z,100871.06
2023-01-01T05:44:50.929Z,100878.06
2023-01-01T05:49:52.453Z,100874.66
2023-01-01T05:54:53.934Z,100869.38
2023-01-01T06:00:01.497Z,100885.75
2023-01-01T06:05:07.372Z,100904.75
2023-01-01T06:10:09.244Z,100910.78
2023-01-01T06:15:12.607Z,100924.72
2023-01-01T06:20:15.176Z,100903.88
2023-01-01T06:25:16.678Z,100932.31
2023-01-01T06:30:18.686Z,100948.69
2023-01-01T06:35:20.195Z,100954.59
2023-01-01T06:40:23.714Z,100967.53
2023-01-01T06:45:25.531Z,100982.22
2023-01-01T06:50:27.029Z,101008.00
2023-01-01T06:55:28.644Z,101030.41
2023-01-01T07:00:31.901Z,101032.94
2023-01-01T07:05:36.650Z,101042.09
2023-01-01T07:10:39.000Z,101048.53
2023-01-01T07:15:44.742Z,101062.91
2023-01-01T07:21:03.665Z,101076.41
2023-01-01T07:26:07.715Z,101083.00
2023-01-01T07:31:10.912Z,101090.47
2023-01-01T07:36:12.817Z,101110.94
2023-01-01T07:41:14.252Z,101109.88
2023-01-01T07:46:16.581Z,101114.13
2023-01-01T07:51:18.160Z,101134.78
2023-01-01T07:56:19.866Z,101148.56
2023-01-01T08:01:21.638Z,101164.00
2023-01-01T08:06:23.192Z,101190.81
2023-01-01T08:11:24.666Z,101165.72
2023-01-01T08:16:26.309Z,101202.81
2023-01-01T08:21:30.175Z,101207.06
2023-01-01T08:26:34.426Z,101219.38
2023-01-01T08:31:36.307Z,101224.34
2023-01-01T08:36:42.944Z,101223.50
2023-01-01T08:41:44.609Z,101238.97
2023-01-01T08:46:46.228Z,101233.06
2023-01-01T08:51:47.886Z,101237.25
2023-01-01T08:56:51.393Z,101228.75
2023-01-01T09:01:53.023Z,101237.38
2023-01-01T09:06:54.772Z,101252.88
2023-01-01T09:12:04.440Z,101252.94
2023-01-01T09:17:06.094Z,101252.28
2023-01-01T09:22:11.903Z,101248.81
2023-01-01T09:27:13.450Z,101253.06
2023-01-01T09:32:14.889Z,101248.00
2023-01-01T09:37:16.302Z,101254.00
2023-01-01T09:42:33.178Z,101265.00
2023-01-01T09:47:41.264Z,101264.94
2023-01-01T09:52:59.560Z,101273.72
2023-01-01T09:58:01.195Z,101276.44
2023-01-01T10:03:34.123Z,101278.44
2023-01-01T10:08:48.019Z,101295.91
2023-01-01T10:13:51.464Z,101289.88
2023-01-01T10:18:56.691Z,101287.38
2023-01-01T10:24:04.679Z,101289.81
2023-01-01T10:29:19.267Z,101278.44
2023-01-01T10:34:28.233Z,101291.22
2023-01-01T10:39:29.978Z,101300.00
2023-01-01T10:44:34.110Z,101269.56
2023-01-01T10:49:54.543Z,101269.56
2023-01-01T10:54:56.145Z,101277.41
2023-01-01T11:00:19.387Z,101290.22
2023-01-01T11:05:22.822Z,101291.00
2023-01-01T11:10:31.204Z,101311.72
2023-01-01T11:15:43.075Z,101308.38
2023-01-01T11:20:50.750Z,101317.09
2023-01-01T11:26:04.184Z,101312.81
2023-01-01T11:31:18.947Z,101308.56
2023-01-01T11:36:32.976Z,101301.72
2023-01-01T11:42:01.956Z,101296.75
2023-01-01T11:47:08.643Z,101289.97
2023-01-01T11:52:36.504Z,101277.28
2023-01-01T11:57:43.115Z,101278.28
2023-01-01T12:02:52.383Z,101273.25
2023-01-01T12:07:57.008Z,101292.41
2023-01-01T12:13:06.327Z,101288.25
2023-01-01T12:18:31.599Z,101294.47
2023-01-01T12:23:34.335Z,101300.50
2023-01-01T12:29:06.698Z,101288.59
2023-01-01T12:34:27.424Z,101282.94
2023-01-01T12:39:43.792Z,101278.13
2023-01-01T12:45:30.472Z,101285.19
2023-01-01T12:50:57.128Z,101290.28
2023-01-01T12:56:05.059Z,101289.34
2023-01-01T13:01:10.447Z,101302.28
2023-01-01T13:06:16.343Z,101298.84
2023-01-01T13:11:19.913Z,101296.25
2023-01-01T13:16:37.535Z,101287.50
2023-01-01T13:21:39.097Z,101300.47
2023-01-01T13:26:41.454Z,101297.72
2023-01-01T13:31:48.958Z,101288.13
2023-01-01T13:36:50.383Z,101278.53
2023-01-01T13:41:51.860Z,101285.38
2023-01-01T13:47:32.491Z,101290.63
2023-01-01T13:52:43.246Z,101298.31
2023-01-01T13:58:16.795Z,101301.78
2023-01-01T14:03:19.195Z,101301.75
2023-01-01T14:08:34.052Z,101305.16
2023-01-01T14:13:41.061Z,101301.59
2023-01-01T14:18:49.508Z,101316.22
2023-01-01T14:23:58.611Z,101311.03
2023-01-01T14:29:05.532Z,101320.47
2023-01-01T14:34:27.612Z,101313.56
2023-01-01T14:39:34.072Z,101314.50
2023-01-01T14:44:40.057Z,101304.97
2023-01-01T14:49:42.611Z,101298.88
2023-01-01T14:54:46.145Z,101292.84
2023-01-01T14:59:54.420Z,101284.94
2023-01-01T15:04:57.779Z,101276.28
2023-01-01T15:10:02.331Z,101275.22
2023-01-01T15:15:04.575Z,101291.00
2023-01-01T15:20:26.461Z,101286.75
2023-01-01T15:25:31.203Z,101284.38
2023-01-01T15:30:34.223Z,101289.44
2023-01-01T15:35:37.864Z,101307.47
2023-01-01T15:40:40.759Z,101295.97
2023-01-01T15:45:50.943Z,101305.34
2023-01-01T15:50:52.489Z,101306.34
2023-01-01T15:56:09.993Z,101316.56
2023-01-01T16:01:14.436Z,101321.75
2023-01-01T16:06:21.520Z,101321.75
2023-01-01T16:11:22.978Z,101330.38
2023-01-01T16:16:31.115Z,101319.78
2023-01-01T16:21:33.244Z,101312.66
2023-01-01T16:26:34.631Z,101298.47
2023-01-01T16:31:36.756Z,101300.19
2023-01-01T16:36:38.186Z,101295.88
2023-01-01T16:41:42.063Z,101288.09
2023-01-01T16:46:43.680Z,101288.97
2023-01-01T16:51:47.202Z,101282.25
2023-01-01T16:56:50.919Z,101276.88
2023-01-01T17:01:52.722Z,101268.31
2023-01-01T17:06:57.877Z,101264.91
2023-01-01T17:12:03.281Z,101253.63
2023-01-01T17:17:04.723Z,101250.69
2023-01-01T17:22:06.230Z,101260.13
2023-01-01T17:27:09.256Z,101258.56
2023-01-01T17:32:13.206Z,101254.59
2023-01-01T17:37:14.656Z,101255.34
2023-01-01T17:42:16.200Z,101248.31
2023-01-01T17:47:17.806Z,101250.66
2023-01-01T17:52:19.460Z,101259.94
2023-01-01T17:57:21.018Z,101241.59
2023-01-01T18:02:22.824Z,101231.13
2023-01-01T18:07:28.555Z,101226.75
2023-01-01T18:12:31.290Z,101226.69
2023-01-01T18:17:34.043Z,101220.53
2023-01-01T18:22:42.731Z,101206.59
2023-01-01T18:27:44.851Z,101219.38
2023-01-01T18:32:46.310Z,101214.94
2023-01-01T18:37:47.859Z,101201.00
2023-01-01T18:43:09.040Z,101180.22
2023-01-01T18:48:17.738Z,101169.00
2023-01-01T18:53:28.120Z,101162.00
2023-01-01T18:58:32.968Z,101143.84
2023-01-01T19:03:40.879Z,101113.59
2023-01-01T19:08:44.558Z,101113.59
2023-01-01T19:13:46.073Z,101105.78
2023-01-01T19:18:47.724Z,101104.03
2023-01-01T19:23:53.227Z,101079.03
2023-01-01T19:28:55.617Z,101066.91
2023-01-01T19:33:59.783Z,101054.72
2023-01-01T19:39:01.256Z,101051.38
2023-01-01T19:44:09.842Z,101054.72
2023-01-01T19:49:11.703Z,101046.97
2023-01-01T19:54:13.198Z,101044.38
2023-01-01T19:59:14.865Z,101039.19
2023-01-01T20:04:16.394Z,101034.03
2023-01-01T20:09:19.012Z,101030.56
2023-01-01T20:14:20.620Z,101025.41
2023-01-01T20:19:22.757Z,101008.16
2023-01-01T20:24:24.184Z,100999.53
2023-01-01T20:29:27.923Z,100998.66
2023-01-01T20:34:29.429Z,100978.81
2023-01-01T20:39:30.840Z,100969.34
2023-01-01T20:44:32.352Z,100976.25
2023-01-01T20:49:35.047Z,100959.88
2023-01-01T20:54:36.852Z,100942.66
2023-01-01T20:59:41.509Z,100938.31
2023-01-01T21:04:43.038Z,100941.78
2023-01-01T21:09:49.101Z,100948.75
2023-01-01T21:14:51.611Z,100930.69
2023-01-01T21:19:58.692Z,100925.50
2023-01-01T21:25:49.125Z,100909.09
2023-01-01T21:30:36.768Z,100897.03
2023-01-01T21:35:40.613Z,100896.13
2023-01-01T21:40:54.254Z,100901.25
2023-01-01T21:46:03.013Z,100887.47
2023-01-01T21:51:27.253Z,100883.22
2023-01-01T21:56:39.175Z,100853.88
2023-01-01T22:01:48.111Z,100845.28
2023-01-01T22:06:58.288Z,100838.44
2023-01-01T22:12:05.784Z,100825.47
2023-01-01T22:17:25.391Z,100823.75
2023-01-01T22:22:31.860Z,100828.13
2023-01-01T22:27:38.877Z,100822.06
2023-01-01T22:32:42.528Z,100818.59
2023-01-01T22:37:54.046Z,100816.97
2023-01-01T22:43:13.310Z,100799.00
2023-01-01T22:48:45.402Z,100784.44
2023-01-01T22:53:49.539Z,100787.13
2023-01-01T22:58:57.622Z,100772.59
2023-01-01T23:04:00.567Z,100768.28
2023-01-01T23:09:05.365Z,100765.69
2023-01-01T23:14:35.518Z,100754.47
2023-01-01T23:19:50.558Z,100751.03
2023-01-01T23:24:53.802Z,100748.38
2023-01-01T23:29:55.589Z,100754.44
2023-01-01T23:34:57.416Z,100742.50
2023-01-01T23:39:59.998Z,100723.59
2023-01-01T23:45:01.486Z,100726.22
2023-01-01T23:50:03.461Z,100728.78
2023-01-01T23:55:05.831Z,100726.31
